Time;durP1;ratioP1;P1;durP2;ratioP2;P2;SDS_P1;SDS_P2;PMS_P1;PMS_P2;Temp;Humidity;BMP_temperature;BMP_pressure;BME280_temperature;BME280_humidity;BME280_pressure;Samples;Min_cycle;Max_cycle;Signal;HPM_P1;HPM_P2
2022/09/12 00:01:53;;;;;;;3.42;0.70;;;;;;;17.13;99.81;100234.31;5003711;28;20440;-47
2022/09/12 00:04:20;;;;;;;1.85;0.65;;;;;;;17.12;99.68;100243.91;5001820;28;20049;-47
2022/09/12 00:06:47;;;;;;;1.20;0.60;;;;;;;17.10;99.58;100231.53;5001533;28;20053;-43
2022/09/12 00:09:14;;;;;;;3.70;1.30;;;;;;;17.09;99.60;100236.31;5002336;28;20049;-43
2022/09/12 00:11:44;;;;;;;1.65;0.50;;;;;;;17.08;99.79;100242.34;5002915;28;20037;-45
2022/09/12 00:14:14;;;;;;;3.20;1.00;;;;;;;17.09;99.62;100243.91;5006278;28;20304;-43
2022/09/12 00:16:42;;;;;;;2.15;0.55;;;;;;;17.08;99.61;100240.31;5002445;28;21679;-46
2022/09/12 00:19:10;;;;;;;0.52;0.45;;;;;;;17.10;99.85;100235.13;5001473;28;20125;-43
2022/09/12 00:21:38;;;;;;;2.72;0.68;;;;;;;17.12;99.75;100235.53;5001447;28;20064;-43
2022/09/12 00:24:06;;;;;;;0.43;0.38;;;;;;;17.14;99.53;100232.31;5000387;28;20045;-45
2022/09/12 00:26:33;;;;;;;1.85;0.40;;;;;;;17.15;99.65;100234.72;5000805;28;20045;-46
2022/09/12 00:29:02;;;;;;;1.27;0.98;;;;;;;17.16;99.66;100236.31;5002831;28;20056;-45
2022/09/12 00:31:29;;;;;;;1.98;0.60;;;;;;;17.17;99.63;100240.72;5001837;28;20447;-45
2022/09/12 00:33:59;;;;;;;4.03;0.63;;;;;;;17.19;99.84;100248.69;4999475;28;20467;-48
2022/09/12 00:36:28;;;;;;;3.78;0.57;;;;;;;17.19;99.60;100246.69;5000597;28;20113;-48
2022/09/12 00:38:55;;;;;;;1.73;0.75;;;;;;;17.20;99.57;100245.50;5003624;28;20115;-46
2022/09/12 00:41:27;;;;;;;13.05;2.00;;;;;;;17.19;99.62;100243.91;5001326;28;20046;-46
2022/09/12 00:44:03;;;;;;;3.15;0.90;;;;;;;17.20;99.89;100244.69;5000496;28;20049;-44
2022/09/12 00:46:48;;;;;;;0.88;0.43;;;;;;;17.21;99.91;100251.91;5000615;28;20085;-47
2022/09/12 00:49:20;;;;;;;1.63;0.77;;;;;;;17.21;99.78;100247.09;5004534;28;20053;-45
2022/09/12 00:51:52;;;;;;;3.50;0.60;;;;;;;17.20;100.00;100245.50;5002158;28;20044;-46
2022/09/12 00:54:23;;;;;;;1.65;0.63;;;;;;;17.21;99.95;100241.50;5000121;28;20611;-45
2022/09/12 00:56:54;;;;;;;1.25;0.90;;;;;;;17.21;100.00;100247.09;5003544;28;20152;-45
2022/09/12 00:59:30;;;;;;;1.23;0.73;;;;;;;17.19;100.00;100243.91;5000994;28;21553;-44
2022/09/12 01:01:56;;;;;;;0.95;0.60;;;;;;;17.17;100.00;100232.31;5001785;28;20103;-46
2022/09/12 01:04:26;;;;;;;1.35;0.50;;;;;;;17.16;100.00;100238.28;5005034;28;20128;-46
2022/09/12 01:06:57;;;;;;;1.08;0.70;;;;;;;17.14;100.00;100233.13;5000646;28;20057;-46
2022/09/12 01:09:24;;;;;;;5.97;0.93;;;;;;;17.11;100.00;100236.72;5000277;28;20462;-44
2022/09/12 01:11:52;;;;;;;0.90;0.60;;;;;;;17.09;100.00;100238.31;5001473;28;20041;-43
2022/09/12 01:14:19;;;;;;;1.25;0.63;;;;;;;17.06;100.00;100242.72;5000908;28;20144;-48
2022/09/12 01:16:48;;;;;;;4.32;1.98;;;;;;;17.03;100.00;100235.94;5001571;28;20041;-46
2022/09/12 01:19:56;;;;;;;2.38;0.50;;;;;;;17.05;100.00;100238.31;5000668;28;20511;-45
2022/09/12 01:22:32;;;;;;;2.90;0.77;;;;;;;17.03;100.00;100235.13;5000605;28;20049;-44
2022/09/12 01:25:29;;;;;;;1.08;0.50;;;;;;;17.02;100.00;100222.34;5001338;28;20056;-45
2022/09/12 01:28:08;;;;;;;2.28;0.40;;;;;;;17.01;100.00;100220.75;4999824;28;20384;-49
2022/09/12 01:30:51;;;;;;;2.25;0.60;;;;;;;17.00;100.00;100214.34;5001435;28;20045;-46
2022/09/12 01:33:48;;;;;;;1.33;0.80;;;;;;;16.98;100.00;100216.75;5000362;28;21978;-45
2022/09/12 01:36:37;;;;;;;1.13;0.60;;;;;;;16.95;100.00;100217.56;5000701;28;20038;-49
2022/09/12 01:39:34;;;;;;;6.38;1.23;;;;;;;16.92;100.00;100217.56;5000553;28;20042;-45
2022/09/12 01:42:25;;;;;;;1.33;0.70;;;;;;;16.90;100.00;100219.94;5003825;28;20079;-44
2022/09/12 01:45:24;;;;;;;0.50;0.30;;;;;;;16.89;100.00;100212.78;5001218;28;20414;-45
2022/09/12 01:47:51;;;;;;;3.33;1.02;;;;;;;16.87;100.00;100215.16;5002110;28;20049;-44
2022/09/12 01:50:28;;;;;;;0.30;0.30;;;;;;;16.87;100.00;100212.38;5000803;28;20045;-45
2022/09/12 01:53:08;;;;;;;0.68;0.60;;;;;;;16.87;100.00;100220.75;4999165;28;20063;-46
2022/09/12 01:56:21;;;;;;;2.92;0.52;;;;;;;16.85;100.00;100217.56;5002170;28;20048;-45
2022/09/12 01:59:04;;;;;;;1.65;0.47;;;;;;;16.84;100.00;100211.16;5014509;28;20183;-50
2022/09/12 02:01:32;;;;;;;1.00;0.40;;;;;;;16.83;100.00;100217.97;4999983;28;20057;-45
2022/09/12 02:04:14;;;;;;;0.80;0.80;;;;;;;16.84;100.00;100210.38;4999643;28;20037;-45
2022/09/12 02:07:07;;;;;;;0.88;0.55;;;;;;;16.84;100.00;100215.94;5002364;28;20064;-44
2022/09/12 02:10:20;;;;;;;1.80;0.68;;;;;;;16.84;100.00;100215.94;5003008;28;20077;-43
2022/09/12 02:13:02;;;;;;;3.60;0.60;;;;;;;16.83;100.00;100209.59;4990190;28;20414;-44
2022/09/12 02:15:41;;;;;;;2.45;0.70;;;;;;;16.83;100.00;100214.38;5000335;28;20068;-45
2022/09/12 02:18:13;;;;;;;0.57;0.52;;;;;;;16.84;100.00;100221.53;5000642;28;20038;-45
2022/09/12 02:20:42;;;;;;;1.10;0.43;;;;;;;16.84;100.00;100213.97;5000517;28;20050;-48
2022/09/12 02:23:24;;;;;;;0.68;0.30;;;;;;;16.86;100.00;100211.59;4999404;28;21231;-47
2022/09/12 02:25:59;;;;;;;1.55;0.57;;;;;;;16.87;100.00;100206.78;4999422;28;20053;-46
2022/09/12 02:28:36;;;;;;;1.52;0.52;;;;;;;16.90;100.00;100214.34;5000087;28;20401;-50
2022/09/12 02:31:13;;;;;;;0.82;0.45;;;;;;;16.91;100.00;100207.59;4999630;28;20049;-45
2022/09/12 02:33:45;;;;;;;3.75;0.60;;;;;;;16.92;100.00;100218.34;5000371;28;20450;-47
2022/09/12 02:36:25;;;;;;;0.60;0.60;;;;;;;16.93;100.00;100205.97;5000044;28;20049;-46
2022/09/12 02:38:53;;;;;;;1.13;0.50;;;;;;;16.94;100.00;100217.97;5006659;28;20502;-47
2022/09/12 02:41:20;;;;;;;1.92;0.43;;;;;;;16.96;100.00;100223.94;4999507;28;20463;-51
2022/09/12 02:43:49;;;;;;;3.03;0.90;;;;;;;16.97;100.00;100219.97;5000766;28;20543;-47
2022/09/12 02:46:22;;;;;;;0.68;0.50;;;;;;;16.97;100.00;100219.97;4998590;28;20045;-45
2022/09/12 02:48:48;;;;;;;1.17;0.98;;;;;;;16.96;100.00;100221.97;4999770;28;20488;-46
2022/09/12 02:51:16;;;;;;;1.45;0.68;;;;;;;16.95;100.00;100214.75;5004620;28;20077;-45
2022/09/12 02:53:49;;;;;;;2.05;0.40;;;;;;;16.95;100.00;100222.34;4998629;28;20470;-44
2022/09/12 02:56:22;;;;;;;0.45;0.45;;;;;;;16.93;100.00;100213.56;4998679;28;20046;-47
2022/09/12 02:58:49;;;;;;;0.60;0.60;;;;;;;16.89;100.00;100207.97;4999315;28;20045;-47
2022/09/12 03:01:45;;;;;;;1.02;0.50;;;;;;;16.87;100.00;100221.56;4915571;23;20410;-47
2022/09/12 03:04:28;;;;;;;1.27;0.60;;;;;;;16.84;100.00;100210.38;4988709;28;20689;-45
2022/09/12 03:07:20;;;;;;;2.22;0.73;;;;;;;16.83;100.00;100212.38;4987352;28;20442;-45
2022/09/12 03:09:58;;;;;;;2.10;0.53;;;;;;;16.83;100.00;100214.38;4994200;28;20045;-44
2022/09/12 03:12:41;;;;;;;0.73;0.40;;;;;;;16.84;100.00;100199.19;4992790;28;20827;-43
2022/09/12 03:15:19;;;;;;;0.80;0.50;;;;;;;16.84;100.00;100204.78;4991874;28;20049;-43
2022/09/12 03:17:56;;;;;;;3.53;0.70;;;;;;;16.84;100.00;100208.38;4990679;28;20093;-44
2022/09/12 03:20:40;;;;;;;1.65;0.70;;;;;;;16.83;100.00;100208.78;4991821;28;20057;-44
2022/09/12 03:23:39;;;;;;;3.08;0.63;;;;;;;16.82;100.00;100212.78;4991939;28;21055;-48
2022/09/12 03:26:20;;;;;;;1.65;0.80;;;;;;;16.79;100.00;100213.56;4992334;28;20458;-50
2022/09/12 03:28:48;;;;;;;2.30;0.65;;;;;;;16.77;100.00;100216.78;4991544;28;20518;-45
2022/09/12 03:31:17;;;;;;;1.20;0.80;;;;;;;16.76;100.00;100208.78;4990700;28;20045;-43
2022/09/12 03:33:44;;;;;;;0.65;0.52;;;;;;;16.76;100.00;100208.78;4989265;28;20046;-44
2022/09/12 03:36:22;;;;;;;1.02;0.68;;;;;;;16.76;100.00;100208.78;5006698;28;20141;-43
2022/09/12 03:38:51;;;;;;;1.95;0.82;;;;;;;16.73;100.00;100220.78;4991723;28;20046;-43
2022/09/12 03:41:18;;;;;;;2.45;1.02;;;;;;;16.73;100.00;100215.97;4991729;28;20444;-44
2022/09/12 03:43:45;;;;;;;4.10;0.90;;;;;;;16.75;100.00;100232.34;4990969;28;21982;-47
2022/09/12 03:46:12;;;;;;;0.77;0.65;;;;;;;16.77;100.00;100227.97;4991287;28;20045;-43
2022/09/12 03:48:40;;;;;;;1.75;0.82;;;;;;;16.78;100.00;100228.75;4990575;28;20042;-44
2022/09/12 03:51:09;;;;;;;2.13;1.00;;;;;;;16.78;100.00;100232.34;4991089;28;20077;-43
2022/09/12 03:53:36;;;;;;;3.92;0.88;;;;;;;16.79;100.00;100233.13;4990553;28;20041;-44
2022/09/12 03:56:07;;;;;;;1.42;0.93;;;;;;;16.80;100.00;100237.53;4991017;28;20049;-45
2022/09/12 03:58:35;;;;;;;3.30;0.98;;;;;;;16.80;100.00;100234.75;4992207;28;20533;-43
2022/09/12 04:01:15;;;;;;;1.95;0.90;;;;;;;16.81;100.00;100234.31;4990179;28;21426;-45
2022/09/12 04:03:44;;;;;;;4.18;0.88;;;;;;;16.81;100.00;100237.13;4991649;28;21463;-43
2022/09/12 04:06:14;;;;;;;1.25;0.73;;;;;;;16.82;100.00;100240.72;4990185;28;20084;-44
2022/09/12 04:08:42;;;;;;;2.15;0.95;;;;;;;16.82;100.00;100235.13;4990940;28;20030;-44
2022/09/12 04:11:11;;;;;;;1.13;0.80;;;;;;;16.82;100.00;100229.53;4990083;28;20049;-44
2022/09/12 04:13:40;;;;;;;3.70;1.52;;;;;;;16.82;100.00;100241.53;4989004;28;20038;-43
2022/09/12 04:16:07;;;;;;;2.13;1.30;;;;;;;16.82;100.00;100240.72;4990227;28;20700;-45
2022/09/12 04:18:35;;;;;;;2.53;0.80;;;;;;;16.79;100.00;100247.13;4990207;28;20058;-43
2022/09/12 04:21:10;;;;;;;1.05;0.60;;;;;;;16.72;100.00;100244.31;4987888;28;20053;-45
2022/09/12 04:23:37;;;;;;;1.40;0.70;;;;;;;16.66;100.00;100237.53;4989539;28;20515;-44
2022/09/12 04:26:07;;;;;;;3.88;0.90;;;;;;;16.61;100.00;100240.72;4990400;28;20185;-45
2022/09/12 04:28:36;;;;;;;1.00;0.65;;;;;;;16.56;100.00;100235.53;4990527;28;20057;-44
2022/09/12 04:31:22;;;;;;;2.42;0.88;;;;;;;16.53;100.00;100233.53;4989609;28;20046;-46
2022/09/12 04:33:57;;;;;;;2.97;1.17;;;;;;;16.50;100.00;100239.88;4989557;28;20041;-44
2022/09/12 04:36:26;;;;;;;2.15;1.38;;;;;;;16.46;100.00;100251.06;4990263;28;20423;-44
2022/09/12 04:38:53;;;;;;;1.65;1.10;;;;;;;16.42;100.00;100239.88;4988344;28;20057;-43
2022/09/12 04:41:22;;;;;;;2.80;1.00;;;;;;;16.38;100.00;100250.25;4989864;28;20064;-43
2022/09/12 04:43:54;;;;;;;1.00;0.90;;;;;;;16.34;100.00;100243.84;4990038;28;20112;-46
2022/09/12 04:46:21;;;;;;;1.02;0.88;;;;;;;16.28;100.00;100241.84;4990275;28;20143;-47
2022/09/12 04:48:48;;;;;;;2.08;1.08;;;;;;;16.25;100.00;100235.06;4989384;28;20045;-43
2022/09/12 04:51:40;;;;;;;1.30;0.85;;;;;;;16.22;100.00;100235.84;4990676;28;20127;-44
2022/09/12 04:54:18;;;;;;;1.05;0.85;;;;;;;16.22;100.00;100240.63;4989393;28;20041;-43
2022/09/12 04:56:47;;;;;;;4.45;0.85;;;;;;;16.20;100.00;100238.22;4989986;28;20048;-43
2022/09/12 04:59:16;;;;;;;0.73;0.73;;;;;;;16.16;100.00;100240.22;4989607;28;20086;-43
2022/09/12 05:01:42;;;;;;;2.60;0.77;;;;;;;16.13;100.00;100238.22;4988464;28;20068;-43
2022/09/12 05:04:11;;;;;;;0.75;0.75;;;;;;;16.10;100.00;100244.56;4989913;28;20098;-43
2022/09/12 05:06:40;;;;;;;3.17;0.73;;;;;;;16.10;100.00;100243.78;4988311;28;20054;-48
2022/09/12 05:09:10;;;;;;;1.67;1.10;;;;;;;16.07;100.00;100239.78;4989561;28;20052;-45
2022/09/12 05:11:39;;;;;;;1.55;0.95;;;;;;;16.03;100.00;100238.97;4988926;28;20546;-43
2022/09/12 05:14:26;;;;;;;1.42;1.00;;;;;;;16.01;100.00;100249.75;4990290;28;20421;-46
2022/09/12 05:16:55;;;;;;;2.88;0.93;;;;;;;16.01;100.00;100252.53;4988686;28;20069;-44
2022/09/12 05:19:22;;;;;;;2.47;1.15;;;;;;;16.00;100.00;100256.53;4989371;28;20042;-43
2022/09/12 05:21:49;;;;;;;1.85;1.20;;;;;;;15.98;100.00;100250.53;4988231;28;20099;-44
2022/09/12 05:24:15;;;;;;;1.38;1.13;;;;;;;15.97;100.00;100254.50;4987715;28;20037;-44
2022/09/12 05:26:43;;;;;;;0.77;0.70;;;;;;;15.93;100.00;100250.91;5003922;28;20060;-46
2022/09/12 05:29:10;;;;;;;1.40;1.30;;;;;;;15.89;100.00;100255.66;4989553;28;20057;-46
2022/09/12 05:31:37;;;;;;;3.80;1.50;;;;;;;15.88;100.00;100254.09;4988413;28;20034;-43
2022/09/12 05:34:05;;;;;;;1.67;0.98;;;;;;;15.86;100.00;100262.03;4989418;28;20055;-43
2022/09/12 05:36:32;;;;;;;4.68;2.08;;;;;;;15.87;100.00;100263.66;4989319;28;20716;-43
2022/09/12 05:38:59;;;;;;;1.88;1.77;;;;;;;15.88;100.00;100258.88;4988332;28;20050;-47
2022/09/12 05:41:32;;;;;;;6.53;3.58;;;;;;;15.89;100.00;100269.63;4988127;28;20380;-45
2022/09/12 05:44:02;;;;;;;3.05;2.30;;;;;;;15.91;100.00;100269.25;4988423;28;20112;-43
2022/09/12 05:46:31;;;;;;;12.48;3.08;;;;;;;15.91;100.00;100272.03;4993243;28;20049;-43
2022/09/12 05:49:07;;;;;;;5.85;3.13;;;;;;;15.91;100.00;100263.69;4988710;28;20057;-46
2022/09/12 05:51:37;;;;;;;2.25;1.83;;;;;;;15.91;100.00;100261.69;4987854;28;20042;-43
2022/09/12 05:54:06;;;;;;;3.53;2.35;;;;;;;15.95;100.00;100275.63;4989548;28;20133;-43
2022/09/12 05:56:38;;;;;;;5.55;2.50;;;;;;;16.00;100.00;100275.25;4991375;28;20042;-45
2022/09/12 05:59:16;;;;;;;3.70;2.22;;;;;;;16.02;100.00;100284.06;4988486;28;20079;-45
2022/09/12 06:01:44;;;;;;;2.88;2.20;;;;;;;16.04;100.00;100278.88;5001293;28;20056;-45
2022/09/12 06:04:11;;;;;;;3.85;2.67;;;;;;;16.06;100.00;100287.66;4989372;28;20164;-45
2022/09/12 06:06:43;;;;;;;4.07;3.47;;;;;;;16.05;100.00;100270.09;4985789;28;20042;-44
2022/09/12 06:09:12;;;;;;;5.18;2.28;;;;;;;16.07;100.00;100278.88;4989149;28;20424;-43
2022/09/12 06:11:40;;;;;;;3.97;2.17;;;;;;;16.09;100.00;100284.09;4988847;28;20080;-43
2022/09/12 06:14:09;;;;;;;3.65;2.75;;;;;;;16.07;100.00;100284.47;4992625;28;20041;-48
2022/09/12 06:16:36;;;;;;;3.88;2.40;;;;;;;16.08;100.00;100283.28;4987566;28;20512;-44
2022/09/12 06:19:16;;;;;;;2.50;2.30;;;;;;;16.09;100.00;100284.88;4988596;28;20061;-46
2022/09/12 06:21:44;;;;;;;1.88;1.77;;;;;;;16.12;100.00;100286.09;4987382;28;22228;-43
2022/09/12 06:24:11;;;;;;;3.05;2.20;;;;;;;16.12;100.00;100292.47;4984914;28;20147;-45
2022/09/12 06:26:37;;;;;;;2.47;2.28;;;;;;;16.13;100.00;100294.06;4987920;28;20045;-44
2022/09/12 06:29:04;;;;;;;2.53;1.98;;;;;;;16.15;100.00;100302.06;4989421;28;20064;-45
2022/09/12 06:31:34;;;;;;;2.92;2.13;;;;;;;16.14;100.00;100295.69;4983433;28;20480;-47
2022/09/12 06:34:09;;;;;;;3.80;2.40;;;;;;;16.15;100.00;100300.03;4987369;28;20058;-45
2022/09/12 06:36:38;;;;;;;3.08;2.00;;;;;;;16.16;100.00;100301.66;5001913;28;20042;-43
2022/09/12 06:39:11;;;;;;;3.08;2.33;;;;;;;16.15;100.00;100297.25;5003605;28;20152;-44
2022/09/12 06:41:38;;;;;;;6.75;2.50;;;;;;;16.16;100.00;100298.06;5005845;28;20057;-44
2022/09/12 06:44:28;;;;;;;3.50;1.80;;;;;;;16.18;100.00;100299.25;5007076;28;20041;-43
2022/09/12 06:46:55;;;;;;;2.90;1.67;;;;;;;16.19;100.00;100306.47;5003495;28;20114;-44
2022/09/12 06:49:21;;;;;;;3.47;2.17;;;;;;;16.20;100.00;100310.84;5006736;28;20049;-45
2022/09/12 06:51:48;;;;;;;1.73;1.63;;;;;;;16.25;100.00;100307.69;5008197;28;20042;-42
2022/09/12 06:54:18;;;;;;;3.33;2.78;;;;;;;16.27;100.00;100304.50;5007249;28;20416;-43
2022/09/12 06:56:45;;;;;;;1.95;1.80;;;;;;;16.28;100.00;100304.09;5008969;28;20050;-43
2022/09/12 06:59:12;;;;;;;2.75;1.80;;;;;;;16.28;100.00;100312.47;5008876;28;20064;-43
2022/09/12 07:01:40;;;;;;;1.90;1.75;;;;;;;16.28;100.00;100306.88;5008634;28;20515;-42
2022/09/12 07:04:08;;;;;;;3.83;1.30;;;;;;;16.30;100.00;100309.28;5008762;28;20100;-42
2022/09/12 07:06:41;;;;;;;3.53;2.00;;;;;;;16.30;100.00;100315.69;5005935;28;20053;-42
2022/09/12 07:09:11;;;;;;;2.00;1.73;;;;;;;16.31;100.00;100317.25;5008095;28;20053;-43
2022/09/12 07:11:40;;;;;;;3.63;1.60;;;;;;;16.31;100.00;100322.03;5009199;28;20145;-47
2022/09/12 07:14:09;;;;;;;4.00;2.05;;;;;;;16.31;100.00;100328.44;5005544;28;20045;-46
2022/09/12 07:16:37;;;;;;;2.22;1.63;;;;;;;16.31;100.00;100334.03;5001361;28;20125;-44
2022/09/12 07:19:06;;;;;;;2.10;1.20;;;;;;;16.32;100.00;100335.63;5004783;28;20077;-47
2022/09/12 07:21:38;;;;;;;2.45;1.30;;;;;;;16.35;100.00;100334.84;4998213;28;20485;-43
2022/09/12 07:24:08;;;;;;;2.00;1.20;;;;;;;16.34;100.00;100333.25;5001914;28;20050;-46
2022/09/12 07:26:35;;;;;;;2.88;1.30;;;;;;;16.36;100.00;100330.84;5003195;28;20053;-43
2022/09/12 07:29:02;;;;;;;3.05;1.10;;;;;;;16.36;100.00;100325.25;5006910;28;20045;-45
2022/09/12 07:31:48;;;;;;;4.65;2.25;;;;;;;16.36;100.00;100325.25;4999073;28;20096;-46
2022/09/12 07:34:18;;;;;;;1.38;1.02;;;;;;;16.35;100.00;100336.84;5005551;28;20503;-44
2022/09/12 07:36:45;;;;;;;2.08;1.55;;;;;;;16.31;100.00;100328.44;5004375;28;20104;-43
2022/09/12 07:39:11;;;;;;;2.90;1.20;;;;;;;16.34;100.00;100335.22;5004953;28;20057;-42
2022/09/12 07:41:38;;;;;;;1.52;1.15;;;;;;;16.39;100.00;100341.25;5008106;28;20069;-44
2022/09/12 07:44:06;;;;;;;3.50;1.27;;;;;;;16.41;100.00;100326.91;5008059;28;20477;-42
2022/09/12 07:46:32;;;;;;;8.60;1.98;;;;;;;16.45;100.00;100334.09;5006349;28;20732;-43
2022/09/12 07:49:00;;;;;;;5.70;1.60;;;;;;;16.51;100.00;100331.72;5005767;28;20491;-42
2022/09/12 07:51:29;;;;;;;4.18;1.52;;;;;;;16.58;100.00;100340.13;5003915;28;20046;-44
2022/09/12 07:53:56;;;;;;;2.85;1.52;;;;;;;16.65;100.00;100342.16;5003496;28;20166;-43
2022/09/12 07:56:24;;;;;;;2.58;1.60;;;;;;;16.69;100.00;100343.75;5009345;28;20050;-43
2022/09/12 07:58:56;;;;;;;6.18;1.85;;;;;;;16.72;100.00;100344.97;5005539;28;20452;-43
2022/09/12 08:01:23;;;;;;;2.45;1.30;;;;;;;16.74;100.00;100343.38;5009749;28;20388;-44
2022/09/12 08:03:59;;;;;;;2.95;1.73;;;;;;;16.80;100.00;100349.38;5008025;28;20034;-47
2022/09/12 08:06:30;;;;;;;3.33;1.50;;;;;;;16.85;100.00;100346.19;5007170;28;20049;-44
2022/09/12 08:08:58;;;;;;;1.77;1.58;;;;;;;16.90;100.00;100348.56;5008976;28;20042;-45
2022/09/12 08:11:29;;;;;;;1.95;1.00;;;;;;;16.97;100.00;100348.63;5010905;28;20402;-48
2022/09/12 08:14:00;;;;;;;1.52;1.00;;;;;;;17.03;100.00;100338.59;5008715;28;20065;-44
2022/09/12 08:16:29;;;;;;;2.83;0.70;;;;;;;17.10;100.00;100335.84;5006696;28;20111;-43
2022/09/12 08:18:58;;;;;;;5.50;1.15;;;;;;;17.16;100.00;100351.00;5010297;28;20038;-43
2022/09/12 08:21:27;;;;;;;4.63;0.80;;;;;;;17.23;100.00;100348.22;5009431;28;20053;-43
2022/09/12 08:23:58;;;;;;;3.45;0.80;;;;;;;17.23;100.00;100353.81;5010076;28;20045;-45
2022/09/12 08:26:25;;;;;;;3.10;1.10;;;;;;;17.30;100.00;100353.81;5010555;28;20042;-43
2022/09/12 08:28:52;;;;;;;3.88;1.30;;;;;;;17.34;100.00;100351.78;5009450;28;20483;-42
2022/09/12 08:31:24;;;;;;;3.28;1.35;;;;;;;17.36;100.00;100357.00;5007155;28;20065;-43
2022/09/12 08:33:50;;;;;;;2.95;0.98;;;;;;;17.41;100.00;100357.41;5009616;28;20431;-43
2022/09/12 08:36:23;;;;;;;2.25;1.08;;;;;;;17.51;100.00;100353.78;5006354;28;20046;-43
2022/09/12 08:38:58;;;;;;;1.67;0.80;;;;;;;17.58;100.00;100350.19;5010374;28;20034;-42
2022/09/12 08:41:29;;;;;;;1.85;0.82;;;;;;;17.59;100.00;100347.03;5012188;28;20054;-46
2022/09/12 08:44:14;;;;;;;2.42;1.33;;;;;;;17.58;100.00;100356.59;5009263;28;20061;-43
2022/09/12 08:47:08;;;;;;;2.00;0.65;;;;;;;17.59;100.00;100351.81;5009379;28;20132;-45
2022/09/12 08:49:47;;;;;;;1.60;0.82;;;;;;;17.56;100.00;100361.00;5009748;28;20064;-46
2022/09/12 08:52:20;;;;;;;2.42;0.52;;;;;;;17.53;100.00;100359.81;5009584;28;20568;-43
2022/09/12 08:54:48;;;;;;;3.28;0.65;;;;;;;17.48;99.61;100374.19;5008046;28;20134;-48
2022/09/12 08:57:16;;;;;;;3.53;0.70;;;;;;;17.51;99.96;100373.38;5001949;28;20564;-43
2022/09/12 08:59:44;;;;;;;1.27;0.45;;;;;;;17.56;99.43;100373.00;5009685;28;20041;-48
2022/09/12 09:02:36;;;;;;;1.65;0.32;;;;;;;17.53;99.18;100371.00;5008919;28;20077;-43
2022/09/12 09:05:19;;;;;;;2.80;0.40;;;;;;;17.50;99.41;100371.78;5010655;28;20142;-50
2022/09/12 09:07:51;;;;;;;8.73;1.08;;;;;;;17.50;98.88;100380.19;5009521;28;20240;-43
2022/09/12 09:10:32;;;;;;;1.88;0.50;;;;;;;17.50;98.91;100382.19;5010685;28;20042;-43
2022/09/12 09:14:46;;;;;;;1.45;0.30;;;;;;;17.52;98.66;100380.59;5008948;28;20050;-43
2022/09/12 09:16:16;;;;;;;2.03;0.60;;;;;;;17.57;99.01;100377.41;5008287;28;20046;-46
2022/09/12 09:18:46;;;;;;;2.28;0.55;;;;;;;17.62;98.48;100391.00;5009689;28;20096;-43
2022/09/12 09:21:32;;;;;;;2.13;1.17;;;;;;;17.68;98.30;100382.19;5010113;28;20046;-44
2022/09/12 09:24:06;;;;;;;1.10;0.65;;;;;;;17.72;98.04;100388.59;5010242;28;20112;-44
2022/09/12 09:26:42;;;;;;;3.42;1.00;;;;;;;17.79;97.62;100378.16;5008952;28;20950;-43
2022/09/12 09:29:19;;;;;;;1.88;1.35;;;;;;;17.89;97.30;100393.38;5009281;28;20372;-43
2022/09/12 09:31:50;;;;;;;4.25;1.00;;;;;;;17.99;97.17;100386.94;4997337;28;20042;-43
2022/09/12 09:34:23;;;;;;;2.20;1.17;;;;;;;18.02;96.91;100383.34;5008831;28;20542;-43
2022/09/12 09:36:51;;;;;;;2.92;1.25;;;;;;;17.99;96.67;100386.94;5008738;28;20038;-43
2022/09/12 09:39:56;;;;;;;1.70;1.27;;;;;;;18.02;97.18;100386.94;5002425;28;20107;-43
2022/09/12 09:42:45;;;;;;;2.58;1.30;;;;;;;18.03;97.16;100399.72;5009496;28;20045;-43
2022/09/12 09:45:15;;;;;;;3.92;1.15;;;;;;;18.04;96.87;100406.13;5009755;28;20443;-45
2022/09/12 09:47:50;;;;;;;1.15;0.85;;;;;;;18.15;96.97;100393.72;5009335;28;20381;-45
2022/09/12 09:50:18;;;;;;;2.83;1.13;;;;;;;18.36;96.65;100395.63;5010630;28;20048;-49
2022/09/12 09:52:46;;;;;;;0.68;0.63;;;;;;;18.54;95.54;100404.78;5010115;28;20053;-43
2022/09/12 09:55:22;;;;;;;0.73;0.70;;;;;;;18.65;95.39;100399.13;5009932;28;20054;-43
2022/09/12 09:57:48;;;;;;;2.15;0.90;;;;;;;18.73;95.46;100404.31;5006850;28;20040;-43
2022/09/12 10:00:26;;;;;;;2.95;0.50;;;;;;;18.79;94.79;100396.28;5010024;28;20510;-43
2022/09/12 10:03:32;;;;;;;1.58;0.80;;;;;;;18.81;94.83;100405.88;4996244;28;20412;-43
2022/09/12 10:06:05;;;;;;;1.15;1.02;;;;;;;18.75;94.88;100407.50;5009122;28;20046;-43
2022/09/12 10:08:35;;;;;;;5.40;1.10;;;;;;;18.74;94.97;100410.72;5009020;28;20688;-44
2022/09/12 10:11:16;;;;;;;12.38;2.00;;;;;;;18.76;94.79;100416.72;5009340;28;20140;-47
2022/09/12 10:13:49;;;;;;;2.97;1.55;;;;;;;18.68;94.63;100401.13;5007446;28;20065;-43
2022/09/12 10:16:21;;;;;;;2.13;1.30;;;;;;;18.66;94.59;100401.56;5009665;28;20502;-46
2022/09/12 10:18:51;;;;;;;5.55;1.45;;;;;;;18.58;93.74;100399.97;5008656;28;20100;-43
2022/09/12 10:21:28;;;;;;;1.88;1.27;;;;;;;18.47;93.95;100406.81;5007573;28;20053;-44
2022/09/12 10:24:13;;;;;;;3.67;1.10;;;;;;;18.37;94.28;100404.84;5009345;28;20041;-43
2022/09/12 10:26:40;;;;;;;2.65;0.85;;;;;;;18.32;94.17;100413.69;5008541;28;20385;-43
2022/09/12 10:29:15;;;;;;;3.05;1.02;;;;;;;18.34;94.15;100423.28;5009148;28;20092;-43
2022/09/12 10:31:50;;;;;;;1.20;1.10;;;;;;;18.34;94.03;100428.88;5008449;28;20042;-48
2022/09/12 10:34:57;;;;;;;1.48;0.88;;;;;;;18.33;94.22;100432.88;5003954;28;20043;-47
2022/09/12 10:37:32;;;;;;;1.73;0.82;;;;;;;18.24;93.77;100427.69;4996583;28;20455;-43
2022/09/12 10:40:02;;;;;;;1.48;0.88;;;;;;;18.19;93.94;100418.91;5009906;28;20042;-43
2022/09/12 10:42:43;;;;;;;0.80;0.80;;;;;;;18.19;93.88;100432.91;5006881;28;20133;-42
2022/09/12 10:45:34;;;;;;;2.90;1.00;;;;;;;18.21;93.82;100441.72;5007823;28;20044;-45
2022/09/12 10:48:21;;;;;;;1.73;0.93;;;;;;;18.23;93.70;100436.50;5002093;28;20508;-44
2022/09/12 10:50:48;;;;;;;1.48;1.38;;;;;;;18.22;93.80;100434.91;5008965;28;20068;-48
2022/09/12 10:53:27;;;;;;;5.00;1.20;;;;;;;18.26;93.59;100441.31;5007352;28;20100;-43
2022/09/12 10:56:11;;;;;;;2.90;1.40;;;;;;;18.30;93.43;100432.88;5008241;28;20046;-42
2022/09/12 10:59:23;;;;;;;3.25;1.30;;;;;;;18.36;93.44;100429.25;5006811;28;20049;-44
2022/09/12 11:02:34;;;;;;;1.63;1.20;;;;;;;18.39;93.10;100433.25;5003283;28;20049;-47
2022/09/12 11:05:07;;;;;;;6.00;1.80;;;;;;;18.40;93.41;100443.28;5000490;28;20089;-43
2022/09/12 11:07:48;;;;;;;6.18;1.92;;;;;;;18.42;93.54;100444.47;5007559;28;20443;-43
2022/09/12 11:10:21;;;;;;;6.03;1.65;;;;;;;18.42;93.56;100446.47;5009085;28;20046;-43
2022/09/12 11:13:09;;;;;;;4.38;2.05;;;;;;;18.46;93.59;100439.63;5008771;28;20447;-44
2022/09/12 11:16:01;;;;;;;6.28;2.55;;;;;;;18.46;93.68;100445.25;5012880;28;20089;-43
2022/09/12 11:18:49;;;;;;;2.17;1.67;;;;;;;18.46;93.83;100436.03;5004858;28;20048;-43
2022/09/12 11:21:44;;;;;;;4.30;2.28;;;;;;;18.45;93.83;100432.44;5008202;28;20100;-43
2022/09/12 11:24:38;;;;;;;4.63;2.00;;;;;;;18.42;93.89;100441.66;5008606;28;20050;-43
2022/09/12 11:27:08;;;;;;;4.30;2.05;;;;;;;18.31;93.63;100449.31;5007532;28;20050;-43
2022/09/12 11:29:47;;;;;;;3.13;2.10;;;;;;;18.27;94.01;100450.53;5009848;28;20058;-43
2022/09/12 11:32:41;;;;;;;2.95;2.30;;;;;;;18.21;94.18;100458.53;5008695;28;20042;-44
2022/09/12 11:35:26;;;;;;;3.70;1.73;;;;;;;18.16;94.30;100458.97;5010537;28;20042;-44
2022/09/12 11:38:27;;;;;;;2.70;1.67;;;;;;;18.12;94.31;100466.56;5011405;28;20049;-43
2022/09/12 11:41:07;;;;;;;3.17;2.38;;;;;;;18.06;94.41;100459.75;5012238;28;20443;-43
2022/09/12 11:43:46;;;;;;;2.38;2.03;;;;;;;18.05;94.47;100460.97;5012093;28;20034;-47
2022/09/12 11:46:16;;;;;;;2.55;2.00;;;;;;;17.99;94.64;100465.38;5011467;28;20069;-44
2022/09/12 11:48:59;;;;;;;4.70;2.80;;;;;;;17.92;94.81;100454.19;5011403;28;20061;-44
2022/09/12 11:51:31;;;;;;;3.13;2.83;;;;;;;17.81;94.90;100462.59;5012038;28;20129;-43
2022/09/12 11:54:09;;;;;;;2.92;2.63;;;;;;;17.77;95.35;100461.78;5012122;28;20034;-43